createdAt,value
2022-11-06T00:04:19.072Z,97778.09
2022-11-06T00:09:22.604Z,97773.47
2022-11-06T00:14:26.035Z,97779.69
2022-11-06T00:19:29.505Z,97777.25
2022-11-06T00:24:32.890Z,97779.44
2022-11-06T00:29:36.290Z,97766.69
2022-11-06T00:34:42.810Z,97762.09
2022-11-06T00:39:46.292Z,97769.66
2022-11-06T00:44:49.743Z,97766.69
2022-11-06T00:49:53.246Z,97762.59
2022-11-06T00:54:58.230Z,97760.44
2022-11-06T01:00:01.570Z,97754.22
2022-11-06T01:05:05.828Z,97764.25
2022-11-06T01:10:09.752Z,97755.53
2022-11-06T01:15:17.480Z,97752.59
2022-11-06T01:20:26.851Z,97749.88
2022-11-06T01:25:32.093Z,97748.25
2022-11-06T01:30:39.088Z,97742.56
2022-11-06T01:35:51.272Z,97747.69
2022-11-06T01:40:55.163Z,97746.34
2022-11-06T01:45:58.745Z,97740.59
2022-11-06T01:51:02.289Z,97738.97
2022-11-06T01:56:10.150Z,97741.44
2022-11-06T02:01:14.185Z,97736.00
2022-11-06T02:06:17.710Z,97739.81
2022-11-06T02:11:21.626Z,97736.81
2022-11-06T02:16:51.117Z,97735.47
2022-11-06T02:22:25.597Z,97733.81
2022-11-06T02:27:29.967Z,97738.41
2022-11-06T02:32:42.486Z,97737.28
2022-11-06T02:37:50.274Z,97731.59
2022-11-06T02:42:57.273Z,97744.03
2022-11-06T02:48:03.168Z,97745.38
2022-11-06T02:53:09.763Z,97746.44
2022-11-06T02:58:22.018Z,97740.44
2022-11-06T03:03:29.393Z,97736.66
2022-11-06T03:08:53.341Z,97732.03
2022-11-06T03:14:29.849Z,97739.03
2022-11-06T03:19:42.945Z,97737.16
2022-11-06T03:25:20.719Z,97732.00
2022-11-06T03:30:28.054Z,97746.81
2022-11-06T03:35:44.238Z,97750.53
2022-11-06T03:40:55.624Z,97761.34
2022-11-06T03:46:02.439Z,97765.34
2022-11-06T03:51:32.590Z,97778.34
2022-11-06T03:56:49.271Z,97764.50
2022-11-06T04:01:57.310Z,97753.94
2022-11-06T04:07:06.257Z,97762.03
2022-11-06T04:12:13.771Z,97766.09
2022-11-06T04:17:17.928Z,97767.41
2022-11-06T04:22:39.322Z,97774.16
2022-11-06T04:27:52.027Z,97778.75
2022-11-06T04:33:20.659Z,97776.84
2022-11-06T04:38:48.461Z,97780.69
2022-11-06T04:43:58.652Z,97785.06
2022-11-06T04:49:05.661Z,97790.22
2022-11-06T04:54:10.367Z,97796.22
2022-11-06T04:59:17.139Z,97792.53
2022-11-06T05:04:20.838Z,97794.75
2022-11-06T05:09:24.795Z,97797.50
2022-11-06T05:14:28.175Z,97802.16
2022-11-06T05:19:32.764Z,97805.75
2022-11-06T05:24:36.713Z,97808.00
2022-11-06T05:29:40.045Z,97813.50
2022-11-06T05:34:43.434Z,97815.44
2022-11-06T05:39:46.891Z,97813.88
2022-11-06T05:44:50.743Z,97816.34
2022-11-06T05:49:54.669Z,97826.34
2022-11-06T05:54:58.683Z,97817.31
2022-11-06T06:00:05.451Z,97819.97
2022-11-06T06:05:15.887Z,97825.34
2022-11-06T06:15:22.286Z,97834.94
2022-11-06T06:20:25.804Z,97839.22
2022-11-06T06:25:30.663Z,97832.94
2022-11-06T06:30:34.082Z,97841.03
2022-11-06T06:35:37.338Z,97824.38
2022-11-06T06:40:40.644Z,97826.53
2022-11-06T06:45:43.922Z,97827.00
2022-11-06T06:50:47.296Z,97823.50
2022-11-06T06:55:50.868Z,97816.50
2022-11-06T07:00:54.524Z,97819.13
2022-11-06T07:05:59.166Z,97823.09
2022-11-06T07:11:05.488Z,97817.44
2022-11-06T07:16:11.267Z,97823.19
2022-11-06T07:21:14.751Z,97828.63
2022-11-06T07:26:18.111Z,97834.84
2022-11-06T07:31:21.543Z,97824.94
2022-11-06T07:36:24.911Z,97830.84
2022-11-06T07:41:28.053Z,97818.22
2022-11-06T07:46:31.240Z,97811.31
2022-11-06T07:51:34.974Z,97810.88
2022-11-06T07:56:38.729Z,97811.84
2022-11-06T08:01:42.338Z,97815.09
2022-11-06T08:06:45.673Z,97810.00
2022-11-06T08:11:49.042Z,97805.44
2022-11-06T08:16:52.363Z,97808.53
2022-11-06T08:21:56.621Z,97807.84
2022-11-06T08:27:07.450Z,97804.16
2022-11-06T08:32:11.415Z,97796.91
2022-11-06T08:37:14.705Z,97788.59
2022-11-06T08:42:18.005Z,97776.97
2022-11-06T08:47:21.399Z,97783.06
2022-11-06T08:52:31.218Z,97773.69
2022-11-06T08:57:40.860Z,97762.94
2022-11-06T09:02:44.080Z,97766.81
2022-11-06T09:07:47.561Z,97760.34
2022-11-06T09:12:50.865Z,97757.00
2022-11-06T09:17:54.996Z,97759.72
2022-11-06T09:23:03.956Z,97751.03
2022-11-06T09:28:07.236Z,97743.34
2022-11-06T09:33:13.453Z,97736.16
2022-11-06T09:38:17.607Z,97729.59
2022-11-06T09:44:09.485Z,97716.66
2022-11-06T09:49:18.373Z,97711.56
2022-11-06T09:54:45.880Z,97703.69
2022-11-06T09:59:51.335Z,97712.41
2022-11-06T10:05:08.427Z,97706.13
2022-11-06T10:10:17.012Z,97700.47
2022-11-06T10:15:28.907Z,97693.06
2022-11-06T10:20:40.276Z,97692.06
2022-11-06T10:25:45.951Z,97687.72
2022-11-06T10:31:08.898Z,97682.25
2022-11-06T10:36:24.898Z,97675.00
2022-11-06T10:41:34.030Z,97672.53
2022-11-06T10:46:39.614Z,97670.13
2022-11-06T10:52:08.204Z,97670.22
2022-11-06T10:57:17.562Z,97673.03
2022-11-06T11:02:30.519Z,97664.84
2022-11-06T11:07:34.699Z,97667.88
2022-11-06T11:12:38.008Z,97662.25
2022-11-06T11:17:42.807Z,97660.69
2022-11-06T11:22:46.199Z,97658.84
2022-11-06T11:27:49.718Z,97655.09
2022-11-06T11:32:54.436Z,97657.91
2022-11-06T11:38:27.067Z,97645.69
2022-11-06T11:43:30.846Z,97648.34
2022-11-06T11:48:51.847Z,97629.72
2022-11-06T11:53:59.906Z,97625.69
2022-11-06T11:59:04.110Z,97635.81
2022-11-06T12:04:26.045Z,97633.16
2022-11-06T12:09:33.766Z,97652.97
2022-11-06T12:14:37.803Z,97653.25
2022-11-06T12:19:45.538Z,97648.41
2022-11-06T12:25:11.847Z,97648.19
2022-11-06T12:30:18.795Z,97646.38
2022-11-06T12:35:31.225Z,97642.63
2022-11-06T12:40:41.800Z,97641.66
2022-11-06T12:46:03.135Z,97637.63
2022-11-06T12:51:17.436Z,97642.28
2022-11-06T12:56:27.592Z,97641.03
2022-11-06T13:01:58.272Z,97640.31
2022-11-06T13:07:40.639Z,97639.13
2022-11-06T13:13:02.996Z,97633.53
2022-11-06T13:18:31.490Z,97644.53
2022-11-06T13:23:48.329Z,97647.63
2022-11-06T13:28:55.570Z,97654.00
2022-11-06T13:34:02.557Z,97645.91
2022-11-06T13:39:16.169Z,97649.31
2022-11-06T13:44:21.187Z,97652.38
2022-11-06T13:49:54.745Z,97646.19
2022-11-06T13:55:27.797Z,97642.78
2022-11-06T14:00:47.697Z,97647.53
2022-11-06T14:06:22.863Z,97653.41
2022-11-06T14:11:33.591Z,97642.13
2022-11-06T14:16:39.812Z,97640.84
2022-11-06T14:22:03.392Z,97646.91
2022-11-06T14:27:12.364Z,97643.75
2022-11-06T14:32:21.677Z,97638.66
2022-11-06T14:37:30.815Z,97652.34
2022-11-06T14:42:42.246Z,97655.97
2022-11-06T14:47:54.427Z,97650.59
2022-11-06T14:53:01.190Z,97647.19
2022-11-06T14:58:31.420Z,97659.22
2022-11-06T15:03:55.260Z,97671.53
2022-11-06T15:09:08.252Z,97671.84
2022-11-06T15:14:11.512Z,97675.13
2022-11-06T15:19:16.330Z,97677.91
2022-11-06T15:24:29.647Z,97678.22
2022-11-06T15:29:37.029Z,97687.47
2022-11-06T15:34:43.917Z,97688.59
2022-11-06T15:40:00.924Z,97705.13
2022-11-06T15:45:15.225Z,97706.53
2022-11-06T15:50:30.668Z,97700.28
2022-11-06T15:55:37.105Z,97709.78
2022-11-06T16:00:42.084Z,97714.41
2022-11-06T16:05:46.825Z,97717.66
2022-11-06T16:10:50.829Z,97727.72
2022-11-06T16:16:02.568Z,97734.50
2022-11-06T16:21:18.885Z,97735.59
2022-11-06T16:26:27.223Z,97733.16
2022-11-06T16:31:31.738Z,97749.75
2022-11-06T16:37:02.863Z,97751.34
2022-11-06T16:42:12.178Z,97755.44
2022-11-06T16:47:22.947Z,97750.03
2022-11-06T16:52:34.981Z,97762.53
2022-11-06T16:57:51.060Z,97761.16
2022-11-06T17:03:09.245Z,97752.78
2022-11-06T17:08:36.741Z,97755.72
2022-11-06T17:13:46.134Z,97760.31
2022-11-06T17:18:49.629Z,97755.38
2022-11-06T17:23:53.945Z,97762.44
2022-11-06T17:28:58.625Z,97764.06
2022-11-06T17:34:02.062Z,97767.88
2022-11-06T17:39:05.809Z,97768.44
2022-11-06T17:44:11.389Z,97776.59
2022-11-06T17:49:17.982Z,97768.44
2022-11-06T17:54:24.295Z,97771.97
2022-11-06T17:59:29.833Z,97774.38
2022-11-06T18:04:39.250Z,97772.22
2022-11-06T18:09:42.941Z,97767.34
2022-11-06T18:14:46.543Z,97764.38
2022-11-06T18:19:50.203Z,97771.41
2022-11-06T18:24:53.593Z,97769.25
2022-11-06T18:29:57.781Z,97772.50
2022-11-06T18:35:04.726Z,97777.38
2022-11-06T18:40:08.974Z,97789.28
2022-11-06T18:45:12.411Z,97790.09
2022-11-06T18:50:15.920Z,97783.06
2022-11-06T18:55:19.313Z,97780.31
2022-11-06T19:00:23.375Z,97784.09
2022-11-06T19:05:27.470Z,97780.59
2022-11-06T19:10:30.865Z,97777.34
2022-11-06T19:15:34.191Z,97779.50
2022-11-06T19:20:42.478Z,97778.16
2022-11-06T19:25:50.831Z,97783.59
2022-11-06T19:31:02.558Z,97779.25
2022-11-06T19:36:06.674Z,97789.31
2022-11-06T19:41:09.933Z,97782.53
2022-11-06T19:46:13.220Z,97785.78
2022-11-06T19:51:17.261Z,97789.59
2022-11-06T19:56:20.710Z,97787.19
2022-11-06T20:01:24.105Z,97790.69
2022-11-06T20:06:27.462Z,97791.50
2022-11-06T20:11:30.655Z,97789.59
2022-11-06T20:16:34.211Z,97783.94
2022-11-06T20:21:37.583Z,97777.16
2022-11-06T20:26:41.641Z,97781.78
2022-11-06T20:31:45.271Z,97773.91
2022-11-06T20:36:48.520Z,97773.69
2022-11-06T20:41:52.663Z,97778.00
2022-11-06T20:46:56.413Z,97777.19
2022-11-06T20:52:13.805Z,97775.00
2022-11-06T20:57:17.970Z,97772.84
2022-11-06T21:02:21.591Z,97778.81
2022-11-06T21:07:27.586Z,97779.66
2022-11-06T21:12:35.666Z,97773.16
2022-11-06T21:17:42.612Z,97764.50
2022-11-06T21:22:45.884Z,97774.81
2022-11-06T21:27:49.358Z,97776.47
2022-11-06T21:32:52.720Z,97774.56
2022-11-06T21:37:56.008Z,97761.81
2022-11-06T21:42:59.437Z,97768.31
2022-11-06T21:48:08.013Z,97764.56
2022-11-06T21:53:18.049Z,97753.94
2022-11-06T21:58:21.981Z,97756.66
2022-11-06T22:03:25.023Z,97753.38
2022-11-06T22:08:30.692Z,97756.66
2022-11-06T22:13:33.925Z,97765.84
2022-11-06T22:18:37.901Z,97766.41
2022-11-06T22:23:41.554Z,97767.75
2022-11-06T22:28:45.613Z,97759.91
2022-11-06T22:33:53.731Z,97757.19
2022-11-06T22:39:08.587Z,97763.19
2022-11-06T22:44:12.343Z,97771.84
2022-11-06T22:49:15.911Z,97764.00
2022-11-06T22:54:20.381Z,97761.25
2022-11-06T22:59:23.957Z,97751.25
2022-11-06T23:04:27.660Z,97755.06
2022-11-06T23:09:31.226Z,97756.13
2022-11-06T23:14:34.602Z,97758.03
2022-11-06T23:19:38.294Z,97758.03
2022-11-06T23:24:42.074Z,97755.03
2022-11-06T23:29:45.159Z,97754.78
2022-11-06T23:34:48.392Z,97754.50
2022-11-06T23:39:52.824Z,97744.75
2022-11-06T23:44:56.240Z,97736.91
2022-11-06T23:50:00.021Z,97730.66
2022-11-06T23:55:04.076Z,97727.94
